Spencer, South Dakota
Current Conditions -  °F | °C
As of 4:53 AM on Friday 28 Nov 2014 (Local Time) from KMHE Reporting Station
Clear Clear  
Wind Chill: -11°   Ceiling: Unl
Heat Index: -6°   Visibility: 10mi
Dew Point: -8°   Wind: 8mph
Humidity: 82%   Direction: 140°SE
Pressure: 29.84"   Gusts: NA
Location:  43.73°N, 97.59°W
Report Text: KMHE 281053Z AUTO 14007KT 10SM CLR M06/M08 A2984 RMK AO2 SLP125 T10561083 $
Loading
Personal Weather Stations






























Interactive Weather Map New forecast layout! Learn more

10-Day Weather Forecast

Advertisements
Track Severe Weather on mobile